Time;durP1;ratioP1;P1;durP2;ratioP2;P2;SDS_P1;SDS_P2;PMS_P1;PMS_P2;Temp;Humidity;BMP_temperature;BMP_pressure;BME280_temperature;BME280_humidity;BME280_pressure;Samples;Min_cycle;Max_cycle;Signal;HPM_P1;HPM_P2
2023/04/26 00:02:26;;;;;;;;;;;;;;;6.54;100.00;96492.41;5053937;28;20420;-70
2023/04/26 00:04:57;;;;;;;;;;;;;;;6.54;100.00;96487.19;5053154;28;19941;-69
2023/04/26 00:07:27;;;;;;;;;;;;;;;6.52;100.00;96489.97;5053730;28;20391;-71
2023/04/26 00:09:53;;;;;;;;;;;;;;;6.50;100.00;96490.16;5035371;28;19943;-72
2023/04/26 00:12:19;;;;;;;;;;;;;;;6.50;100.00;96494.56;5036044;28;20309;-72
2023/04/26 00:14:45;;;;;;;;;;;;;;;6.48;100.00;96499.97;5052633;28;19943;-71
2023/04/26 00:17:11;;;;;;;;;;;;;;;6.49;100.00;96498.97;5035147;28;19979;-72
2023/04/26 00:19:37;;;;;;;;;;;;;;;6.49;100.00;96492.97;5054700;28;19947;-72
2023/04/26 00:22:04;;;;;;;;;;;;;;;6.47;100.00;96495.75;5056842;28;19952;-73
2023/04/26 00:24:31;;;;;;;;;;;;;;;6.50;100.00;96489.34;5056229;28;19938;-83
2023/04/26 00:26:57;;;;;;;;;;;;;;;6.49;100.00;96487.75;5056795;28;19942;-78
2023/04/26 00:29:23;;;;;;;;;;;;;;;6.50;100.00;96484.94;5055510;28;20013;-74
2023/04/26 00:31:49;;;;;;;;;;;;;;;6.49;100.00;96490.38;5056597;28;19958;-74
2023/04/26 00:34:15;;;;;;;;;;;;;;;6.46;100.00;96482.91;5056682;28;19995;-74
2023/04/26 00:36:41;;;;;;;;;;;;;;;6.44;100.00;96485.72;5057270;28;19954;-77
2023/04/26 00:39:08;;;;;;;;;;;;;;;6.44;100.00;96487.50;5057387;28;20303;-76
2023/04/26 00:41:34;;;;;;;;;;;;;;;6.42;100.00;96492.91;5057308;28;19937;-74
2023/04/26 00:43:59;;;;;;;;;;;;;;;6.40;100.00;96488.88;5056996;28;19971;-77
2023/04/26 00:46:27;;;;;;;;;;;;;;;6.40;100.00;96488.88;5056451;28;20382;-74
2023/04/26 00:48:54;;;;;;;;;;;;;;;6.38;100.00;96494.28;5055599;28;20424;-74
2023/04/26 00:51:19;;;;;;;;;;;;;;;6.39;100.00;96497.72;5054880;28;19945;-74
2023/04/26 00:53:45;;;;;;;;;;;;;;;6.38;100.00;96499.50;5039176;28;19947;-74
2023/04/26 00:56:11;;;;;;;;;;;;;;;6.38;100.00;96496.88;5054996;28;19940;-74
2023/04/26 00:58:37;;;;;;;;;;;;;;;6.37;100.00;96497.91;5039050;28;19954;-75
2023/04/26 01:01:03;;;;;;;;;;;;;;;6.37;100.00;96494.50;5054924;28;19951;-71
2023/04/26 01:03:29;;;;;;;;;;;;;;;6.36;100.00;96487.66;5038252;28;19949;-80
2023/04/26 01:05:56;;;;;;;;;;;;;;;6.34;100.00;96490.47;5056057;28;19938;-74
2023/04/26 01:08:22;;;;;;;;;;;;;;;6.34;100.00;96494.84;5055934;28;19955;-74
2023/04/26 01:10:48;;;;;;;;;;;;;;;6.32;100.00;96489.84;5055907;28;19955;-74
2023/04/26 01:13:15;;;;;;;;;;;;;;;6.29;100.00;96488.41;5056319;28;19955;-74
2023/04/26 01:15:49;;;;;;;;;;;;;;;6.28;100.00;96494.63;5055583;28;20066;-73
2023/04/26 01:18:15;;;;;;;;;;;;;;;6.28;100.00;96492.03;5056193;28;19951;-73
2023/04/26 01:20:41;;;;;;;;;;;;;;;6.26;100.00;96494.00;5055724;28;19944;-79
2023/04/26 01:23:11;;;;;;;;;;;;;;;6.26;100.00;96490.59;5056542;28;19947;-72
2023/04/26 01:25:38;;;;;;;;;;;;;;;6.25;100.00;96491.59;5018655;28;19943;-71
2023/04/26 01:28:04;;;;;;;;;;;;;;;6.24;100.00;96490.78;5037773;28;19953;-71
2023/04/26 01:30:29;;;;;;;;;;;;;;;6.21;100.00;96485.94;5056095;28;19948;-71
2023/04/26 01:32:55;;;;;;;;;;;;;;;6.19;100.00;96484.53;5037880;28;19994;-71
2023/04/26 01:35:21;;;;;;;;;;;;;;;6.18;100.00;96490.75;5055096;28;19942;-71
2023/04/26 01:37:47;;;;;;;;;;;;;;;6.16;100.00;96482.31;5055344;28;19964;-71
2023/04/26 01:40:14;;;;;;;;;;;;;;;6.14;100.00;96484.31;5054154;28;20326;-77
2023/04/26 01:42:40;;;;;;;;;;;;;;;6.12;100.00;96489.69;5021147;28;20521;-79
2023/04/26 01:45:06;;;;;;;;;;;;;;;6.10;100.00;96489.88;5055296;28;19939;-81
2023/04/26 01:47:32;;;;;;;;;;;;;;;6.09;100.00;96488.28;5056168;28;19999;-78
2023/04/26 01:49:58;;;;;;;;;;;;;;;6.08;100.00;96489.25;5038148;28;19979;-80
2023/04/26 01:52:24;;;;;;;;;;;;;;;6.08;100.00;96488.47;5055129;28;20485;-80
2023/04/26 01:54:50;;;;;;;;;;;;;;;6.07;100.00;96484.25;5055964;28;19993;-78
2023/04/26 01:57:16;;;;;;;;;;;;;;;6.06;100.00;96477.44;5055153;28;19936;-80
2023/04/26 01:59:41;;;;;;;;;;;;;;;6.03;100.00;96470.81;5054573;28;19955;-72
2023/04/26 02:02:07;;;;;;;;;;;;;;;5.99;100.00;96464.38;5054540;28;20283;-71
2023/04/26 02:04:33;;;;;;;;;;;;;;;5.97;100.00;96466.34;5054071;28;19995;-71
2023/04/26 02:06:59;;;;;;;;;;;;;;;5.94;100.00;96461.47;5053708;28;19945;-72
2023/04/26 02:09:25;;;;;;;;;;;;;;;5.90;100.00;96453.25;5054568;28;19946;-72
2023/04/26 02:11:51;;;;;;;;;;;;;;;5.87;100.00;96460.63;5054644;28;20336;-71
2023/04/26 02:14:17;;;;;;;;;;;;;;;5.85;100.00;96473.00;5053561;28;19944;-71
2023/04/26 02:16:43;;;;;;;;;;;;;;;5.82;100.00;96478.59;5054564;28;19975;-76
2023/04/26 02:19:09;;;;;;;;;;;;;;;5.81;100.00;96495.19;5054197;28;19961;-80
2023/04/26 02:21:51;;;;;;;;;;;;;;;5.79;100.00;96497.97;5053469;28;19936;-80
2023/04/26 02:24:17;;;;;;;;;;;;;;;5.79;100.00;96491.97;5053623;28;19949;-80
2023/04/26 02:26:43;;;;;;;;;;;;;;;5.78;100.00;96490.38;5069900;28;19938;-79
2023/04/26 02:29:09;;;;;;;;;;;;;;;5.75;100.00;96483.72;5055272;28;20414;-80
2023/04/26 02:31:35;;;;;;;;;;;;;;;5.72;100.00;96484.13;5053124;28;19953;-80
2023/04/26 02:34:01;;;;;;;;;;;;;;;5.69;100.00;96481.88;5054371;28;19939;-81
2023/04/26 02:36:27;;;;;;;;;;;;;;;5.68;100.00;96493.28;5053761;28;19960;-77
2023/04/26 02:38:53;;;;;;;;;;;;;;;5.66;99.97;96493.47;5054179;28;19945;-78
2023/04/26 02:41:19;;;;;;;;;;;;;;;5.66;100.00;96492.66;5054293;28;19996;-77
2023/04/26 02:43:45;;;;;;;;;;;;;;;5.62;99.66;96497.41;5053647;28;19940;-77
2023/04/26 02:46:11;;;;;;;;;;;;;;;5.58;100.00;96496.19;5054904;28;19947;-78
2023/04/26 02:48:37;;;;;;;;;;;;;;;5.56;100.00;96495.56;5054611;28;19938;-79
2023/04/26 02:51:02;;;;;;;;;;;;;;;5.56;100.00;96489.56;5054061;28;20012;-79
2023/04/26 02:53:28;;;;;;;;;;;;;;;5.56;100.00;96492.16;5054059;28;19979;-69
2023/04/26 02:55:54;;;;;;;;;;;;;;;5.56;100.00;96494.75;5053988;28;20312;-71
2023/04/26 02:58:20;;;;;;;;;;;;;;;5.52;100.00;96491.72;5053582;28;19991;-71
2023/04/26 03:00:49;;;;;;;;;;;;;;;5.51;100.00;96497.91;5053215;28;20295;-71
2023/04/26 03:03:15;;;;;;;;;;;;;;;5.48;100.00;96487.88;5052678;28;20307;-71
2023/04/26 03:05:41;;;;;;;;;;;;;;;5.46;100.00;96485.47;5053796;28;20301;-71
2023/04/26 03:08:08;;;;;;;;;;;;;;;5.43;100.00;96483.22;5054558;28;19942;-71
2023/04/26 03:10:33;;;;;;;;;;;;;;;5.43;100.00;96485.03;5053757;28;20390;-73
2023/04/26 03:12:59;;;;;;;;;;;;;;;5.40;100.00;96481.00;5054223;28;19964;-71
2023/04/26 03:15:25;;;;;;;;;;;;;;;5.37;100.00;96480.56;5052189;28;19975;-74
2023/04/26 03:17:51;;;;;;;;;;;;;;;5.36;100.00;96486.75;5053624;28;19954;-74
2023/04/26 03:20:17;;;;;;;;;;;;;;;5.34;100.00;96481.75;5052400;28;19970;-74
2023/04/26 03:22:43;;;;;;;;;;;;;;;5.32;100.00;96483.72;5053548;28;20382;-74
2023/04/26 03:25:09;;;;;;;;;;;;;;;5.29;100.00;96478.88;5052721;28;19943;-75
2023/04/26 03:27:35;;;;;;;;;;;;;;;5.25;100.00;96478.44;5053506;28;19993;-74
2023/04/26 03:30:01;;;;;;;;;;;;;;;5.22;100.00;96480.59;5053495;28;20032;-71
2023/04/26 03:32:30;;;;;;;;;;;;;;;5.18;100.00;96474.16;5052282;28;19958;-71
2023/04/26 03:34:55;;;;;;;;;;;;;;;5.15;100.00;96472.72;5052298;28;19945;-71
2023/04/26 03:37:22;;;;;;;;;;;;;;;5.12;100.00;96474.88;5053960;28;19958;-71
2023/04/26 03:39:49;;;;;;;;;;;;;;;5.07;99.91;96465.03;5053437;28;19948;-71
2023/04/26 03:42:15;;;;;;;;;;;;;;;5.02;100.00;96468.19;5052153;28;20332;-71
2023/04/26 03:44:41;;;;;;;;;;;;;;;4.98;99.74;96466.94;5052255;28;19942;-71
2023/04/26 03:47:07;;;;;;;;;;;;;;;4.93;99.33;96469.25;5053465;28;19941;-77
2023/04/26 03:49:32;;;;;;;;;;;;;;;4.89;99.22;96470.59;5052705;28;19948;-79
2023/04/26 03:51:58;;;;;;;;;;;;;;;4.83;99.22;96472.16;5069504;28;19987;-73
2023/04/26 03:54:24;;;;;;;;;;;;;;;4.79;98.90;96473.50;5054046;28;19938;-74
2023/04/26 03:56:50;;;;;;;;;;;;;;;4.74;98.92;96475.03;5057754;28;19933;-73
2023/04/26 03:59:16;;;;;;;;;;;;;;;4.70;98.58;96465.97;5056801;28;19950;-73
2023/04/26 04:01:42;;;;;;;;;;;;;;;4.65;98.73;96474.31;5057436;28;19945;-74
2023/04/26 04:04:08;;;;;;;;;;;;;;;4.61;98.81;96470.47;5057879;28;19940;-73
2023/04/26 04:06:34;;;;;;;;;;;;;;;4.57;98.91;96480.38;5055991;28;20421;-69
2023/04/26 04:09:00;;;;;;;;;;;;;;;4.56;99.16;96486.59;5039241;28;19978;-70
2023/04/26 04:11:26;;;;;;;;;;;;;;;4.53;99.48;96481.72;5056719;28;20443;-70
2023/04/26 04:13:52;;;;;;;;;;;;;;;4.52;100.00;96485.31;5057519;28;20341;-71
2023/04/26 04:16:18;;;;;;;;;;;;;;;4.50;100.00;96489.09;5056791;28;20421;-71
2023/04/26 04:18:43;;;;;;;;;;;;;;;4.49;100.00;96490.84;5057501;28;19945;-71
2023/04/26 04:21:09;;;;;;;;;;;;;;;4.50;100.00;96487.28;5055638;28;19943;-71
2023/04/26 04:23:35;;;;;;;;;;;;;;;4.49;100.00;96488.25;5055605;28;19946;-78
2023/04/26 04:26:02;;;;;;;;;;;;;;;4.50;100.00;96494.28;5057157;28;19938;-79
2023/04/26 04:28:28;;;;;;;;;;;;;;;4.51;100.00;96493.28;5056353;28;19950;-71
2023/04/26 04:30:55;;;;;;;;;;;;;;;4.53;100.00;96496.50;5039640;28;19948;-71
2023/04/26 04:33:21;;;;;;;;;;;;;;;4.55;100.00;96495.34;5056585;28;19961;-71
2023/04/26 04:35:47;;;;;;;;;;;;;;;4.57;100.00;96498.56;5055277;28;19950;-71
2023/04/26 04:38:13;;;;;;;;;;;;;;;4.58;100.00;96494.22;5056817;28;19938;-71
2023/04/26 04:40:39;;;;;;;;;;;;;;;4.59;100.00;96499.19;5055371;28;19942;-71
2023/04/26 04:43:05;;;;;;;;;;;;;;;4.60;100.00;96495.63;5057082;28;19939;-82
2023/04/26 04:45:31;;;;;;;;;;;;;;;4.62;100.00;96500.63;5057044;28;19941;-79
2023/04/26 04:47:57;;;;;;;;;;;;;;;4.64;100.00;96499.50;5055230;28;20414;-79
2023/04/26 04:50:23;;;;;;;;;;;;;;;4.68;100.00;96500.75;5057175;28;19950;-79
2023/04/26 04:52:49;;;;;;;;;;;;;;;4.71;100.00;96499.56;5056179;28;19958;-78
2023/04/26 04:55:15;;;;;;;;;;;;;;;4.75;100.00;96507.81;5056822;28;19936;-78
2023/04/26 04:57:41;;;;;;;;;;;;;;;4.79;100.00;96506.47;5056167;28;19957;-79
2023/04/26 05:00:14;;;;;;;;;;;;;;;4.83;100.00;96502.50;5055567;28;20382;-78
2023/04/26 05:02:40;;;;;;;;;;;;;;;4.86;100.00;96504.75;5056627;28;20283;-74
2023/04/26 05:05:06;;;;;;;;;;;;;;;4.91;100.00;96515.41;5056159;28;20378;-71
2023/04/26 05:07:33;;;;;;;;;;;;;;;4.97;100.00;96519.88;5055597;28;20331;-71
2023/04/26 05:09:58;;;;;;;;;;;;;;;5.01;100.00;96518.53;5055913;28;19956;-71
2023/04/26 05:12:25;;;;;;;;;;;;;;;5.07;100.00;96519.63;5055868;28;19963;-71
2023/04/26 05:14:50;;;;;;;;;;;;;;;5.12;100.00;96512.06;5056142;28;19952;-71
2023/04/26 05:17:16;;;;;;;;;;;;;;;5.18;100.00;96521.75;5054540;28;20392;-71
2023/04/26 05:19:42;;;;;;;;;;;;;;;5.23;100.00;96508.22;5055479;28;19944;-80
2023/04/26 05:22:08;;;;;;;;;;;;;;;5.29;100.00;96520.47;5055975;28;19982;-71
2023/04/26 05:24:34;;;;;;;;;;;;;;;5.33;100.00;96518.31;5056154;28;20002;-71
2023/04/26 05:27:00;;;;;;;;;;;;;;;5.35;100.00;96514.53;5055676;28;19942;-71
2023/04/26 05:29:29;;;;;;;;;;;;;;;5.40;100.00;96520.00;5054540;28;20286;-72
2023/04/26 05:31:55;;;;;;;;;;;;;;;5.47;100.00;96520.88;5055580;28;19950;-71
2023/04/26 05:34:22;;;;;;;;;;;;;;;5.57;100.00;96525.00;5056375;28;20003;-71
2023/04/26 05:36:48;;;;;;;;;;;;;;;5.67;100.00;96533.31;5055697;28;20334;-71
2023/04/26 05:39:14;;;;;;;;;;;;;;;5.69;100.00;96531.31;5056267;28;19992;-77
2023/04/26 05:41:41;;;;;;;;;;;;;;;5.67;98.74;96530.72;5054443;28;19947;-80
2023/04/26 05:44:07;;;;;;;;;;;;;;;5.61;98.09;96526.25;5054121;28;19941;-80
2023/04/26 05:46:32;;;;;;;;;;;;;;;5.55;98.21;96537.38;5055392;28;19948;-79
2023/04/26 05:48:58;;;;;;;;;;;;;;;5.53;98.82;96540.16;5055553;28;19944;-79
2023/04/26 05:51:25;;;;;;;;;;;;;;;5.53;99.34;96536.75;5055245;28;19937;-79
2023/04/26 05:53:51;;;;;;;;;;;;;;;5.57;99.37;96538.81;5055403;28;19958;-79
2023/04/26 05:56:16;;;;;;;;;;;;;;;5.61;98.16;96534.84;5055981;28;19937;-74
2023/04/26 05:58:42;;;;;;;;;;;;;;;5.63;97.97;96529.47;5054162;28;19946;-72
2023/04/26 06:01:08;;;;;;;;;;;;;;;5.68;98.06;96532.31;5055595;28;19944;-71
2023/04/26 06:03:34;;;;;;;;;;;;;;;5.79;98.23;96533.63;5037953;28;19941;-71
2023/04/26 06:06:00;;;;;;;;;;;;;;;5.86;97.53;96530.09;5053572;28;19952;-71
2023/04/26 06:08:27;;;;;;;;;;;;;;;5.95;97.68;96525.59;5055473;28;19940;-71
2023/04/26 06:10:53;;;;;;;;;;;;;;;6.14;97.71;96547.59;5054306;28;19946;-71
2023/04/26 06:13:19;;;;;;;;;;;;;;;6.37;96.95;96536.97;5055296;28;20293;-71
2023/04/26 06:15:45;;;;;;;;;;;;;;;6.49;95.43;96532.06;5053969;28;19974;-81
2023/04/26 06:18:10;;;;;;;;;;;;;;;6.56;95.23;96539.91;5052636;28;19983;-69
2023/04/26 06:20:36;;;;;;;;;;;;;;;6.59;95.24;96544.72;5053482;28;19940;-68
2023/04/26 06:23:02;;;;;;;;;;;;;;;6.59;94.54;96529.88;5054603;28;20407;-69
2023/04/26 06:25:28;;;;;;;;;;;;;;;6.60;93.54;96530.72;5054115;28;19939;-69
2023/04/26 06:27:54;;;;;;;;;;;;;;;6.60;94.46;96541.13;5054519;28;20030;-69
2023/04/26 06:30:20;;;;;;;;;;;;;;;6.62;93.99;96534.75;5055245;28;19941;-68
2023/04/26 06:32:46;;;;;;;;;;;;;;;6.67;93.49;96534.16;5053160;28;20017;-69
2023/04/26 06:35:12;;;;;;;;;;;;;;;6.89;94.58;96548.75;5053302;28;19948;-81
2023/04/26 06:37:38;;;;;;;;;;;;;;;7.03;91.99;96539.19;5054603;28;19994;-77
2023/04/26 06:40:04;;;;;;;;;;;;;;;7.20;91.00;96531.84;5053082;28;19945;-78
2023/04/26 06:42:30;;;;;;;;;;;;;;;7.34;89.13;96516.25;5036897;28;20412;-78
2023/04/26 06:44:56;;;;;;;;;;;;;;;7.37;90.86;96531.50;5056434;28;19978;-76
2023/04/26 06:47:22;;;;;;;;;;;;;;;7.34;90.87;96527.47;5056073;28;19945;-79
2023/04/26 06:49:48;;;;;;;;;;;;;;;7.32;89.80;96516.44;5054374;28;19941;-78
2023/04/26 06:52:14;;;;;;;;;;;;;;;7.33;90.54;96520.66;5053009;28;20367;-70
2023/04/26 06:54:40;;;;;;;;;;;;;;;7.32;90.78;96525.06;5037212;28;19985;-80
2023/04/26 06:57:06;;;;;;;;;;;;;;;7.38;89.76;96507.84;5054725;28;19942;-78
2023/04/26 06:59:32;;;;;;;;;;;;;;;7.45;88.05;96506.03;5054877;28;20381;-77
2023/04/26 07:01:59;;;;;;;;;;;;;;;7.62;87.44;96492.63;5036906;28;19991;-76
2023/04/26 07:04:25;;;;;;;;;;;;;;;8.00;86.14;96477.25;5054152;28;19943;-76
2023/04/26 07:06:51;;;;;;;;;;;;;;;7.99;78.32;96414.75;5053821;28;20035;-76
2023/04/26 07:09:16;;;;;;;;;;;;;;;8.18;81.90;96454.94;5053796;28;20024;-69
2023/04/26 07:11:44;;;;;;;;;;;;;;;8.38;81.46;96441.81;5053890;28;19943;-80
2023/04/26 07:14:10;;;;;;;;;;;;;;;8.85;79.12;96429.47;5053579;28;19970;-74
2023/04/26 07:16:36;;;;;;;;;;;;;;;8.92;72.65;96357.84;5035584;28;20048;-73
2023/04/26 07:19:02;;;;;;;;;;;;;;;9.09;79.84;96428.78;5053155;28;19959;-73
2023/04/26 07:21:28;;;;;;;;;;;;;;;9.41;79.34;96422.75;5053552;28;19949;-74
2023/04/26 07:23:54;;;;;;;;;;;;;;;9.77;76.00;96388.06;5052259;28;19990;-74
2023/04/26 07:26:21;;;;;;;;;;;;;;;10.04;70.44;96340.69;5036494;28;19946;-74
2023/04/26 07:28:47;;;;;;;;;;;;;;;10.18;64.67;96292.34;5052837;28;19955;-79
2023/04/26 07:31:12;;;;;;;;;;;;;;;10.04;66.71;96427.16;5052350;28;20384;-73
2023/04/26 07:33:38;;;;;;;;;;;;;;;10.07;68.49;96451.09;5035566;28;19955;-73
2023/04/26 07:36:04;;;;;;;;;;;;;;;10.10;68.45;96453.31;5036318;28;19957;-73
2023/04/26 07:38:30;;;;;;;;;;;;;;;10.24;67.70;96450.56;5052209;28;20377;-73
2023/04/26 07:40:57;;;;;;;;;;;;;;;10.20;67.91;96450.19;5052781;28;19950;-74
2023/04/26 07:43:23;;;;;;;;;;;;;;;10.27;66.76;96447.53;5035349;28;19947;-73
2023/04/26 07:45:48;;;;;;;;;;;;;;;10.12;65.31;96448.66;5036157;28;19946;-73
2023/04/26 07:48:15;;;;;;;;;;;;;;;10.24;67.68;96458.41;5052974;28;20117;-73
2023/04/26 07:50:42;;;;;;;;;;;;;;;10.52;64.93;96448.31;5036269;28;19970;-72
2023/04/26 07:53:08;;;;;;;;;;;;;;;10.82;67.41;96473.03;5036274;28;19971;-71
2023/04/26 07:55:35;;;;;;;;;;;;;;;11.40;71.51;96483.03;5053256;28;20399;-71
2023/04/26 07:58:01;;;;;;;;;;;;;;;11.80;68.02;96469.38;5053734;28;19945;-71
2023/04/26 08:00:27;;;;;;;;;;;;;;;11.82;64.78;96459.41;5053814;28;19944;-71
2023/04/26 08:02:53;;;;;;;;;;;;;;;11.51;62.64;96471.78;5053112;28;19939;-71
2023/04/26 08:05:19;;;;;;;;;;;;;;;11.31;65.23;96474.66;5053264;28;20374;-77
2023/04/26 08:07:44;;;;;;;;;;;;;;;11.46;66.22;96489.22;5053562;28;19988;-76
2023/04/26 08:10:11;;;;;;;;;;;;;;;11.38;66.65;96501.66;5052784;28;19994;-77
2023/04/26 08:12:37;;;;;;;;;;;;;;;11.13;64.54;96482.56;5053161;28;19941;-76
2023/04/26 08:15:03;;;;;;;;;;;;;;;10.87;66.95;96497.56;5053030;28;19977;-77
2023/04/26 08:17:31;;;;;;;;;;;;;;;10.60;66.12;96494.41;5053721;28;19946;-76
2023/04/26 08:19:59;;;;;;;;;;;;;;;10.47;66.03;96497.97;5053797;28;19940;-76
2023/04/26 08:22:26;;;;;;;;;;;;;;;10.23;68.54;96510.03;5053002;28;19999;-78
2023/04/26 08:24:54;;;;;;;;;;;;;;;10.05;71.40;96521.25;5053479;28;19951;-69
2023/04/26 08:27:20;;;;;;;;;;;;;;;10.01;69.56;96511.41;5053823;28;19942;-80
2023/04/26 08:29:46;;;;;;;;;;;;;;;9.98;68.72;96504.78;5052441;28;19950;-80
2023/04/26 08:32:12;;;;;;;;;;;;;;;9.89;71.35;96519.97;5052978;28;19976;-80
2023/04/26 08:34:37;;;;;;;;;;;;;;;9.90;72.79;96526.00;5053398;28;19957;-80
2023/04/26 08:37:05;;;;;;;;;;;;;;;10.01;71.70;96521.88;5052848;28;20311;-80
2023/04/26 08:39:32;;;;;;;;;;;;;;;10.11;70.65;96515.16;5052874;28;19950;-79
2023/04/26 08:42:04;;;;;;;;;;;;;;;10.28;69.70;96501.53;5055994;28;19937;-77
2023/04/26 08:44:33;;;;;;;;;;;;;;;10.41;67.84;96501.44;5055992;28;19941;-80
2023/04/26 08:47:02;;;;;;;;;;;;;;;10.42;67.94;96503.06;5039329;28;19942;-80
2023/04/26 08:49:34;;;;;;;;;;;;;;;10.56;66.79;96495.88;5055114;28;19952;-80
2023/04/26 08:52:00;;;;;;;;;;;;;;;10.77;65.63;96489.41;5039007;28;20323;-79
2023/04/26 08:54:27;;;;;;;;;;;;;;;11.04;68.64;96510.13;5059878;28;19960;-80
2023/04/26 08:56:54;;;;;;;;;;;;;;;11.15;63.99;96489.19;5058235;28;19962;-79
2023/04/26 08:59:20;;;;;;;;;;;;;;;10.93;63.49;96493.28;5057235;28;20440;-82
2023/04/26 09:01:46;;;;;;;;;;;;;;;10.72;63.61;96494.50;5059853;28;19945;-74
2023/04/26 09:04:12;;;;;;;;;;;;;;;10.48;65.92;96512.69;5039292;28;20305;-76
2023/04/26 09:06:39;;;;;;;;;;;;;;;10.29;64.77;96503.97;5056388;28;19950;-76
2023/04/26 09:09:07;;;;;;;;;;;;;;;10.11;65.42;96503.88;5056615;28;19948;-77
2023/04/26 09:11:51;;;;;;;;;;;;;;;10.05;67.65;96504.72;5037985;28;19944;-76
2023/04/26 09:14:17;;;;;;;;;;;;;;;10.19;71.48;96527.22;5056123;28;19950;-76
2023/04/26 09:16:43;;;;;;;;;;;;;;;10.42;68.02;96512.75;5055616;28;19966;-77
2023/04/26 09:19:34;;;;;;;;;;;;;;;10.52;64.72;96495.50;5071782;28;20418;-75
2023/04/26 09:22:00;;;;;;;;;;;;;;;10.59;65.28;96492.03;5070540;28;19957;-73
2023/04/26 09:24:26;;;;;;;;;;;;;;;10.62;68.01;96505.50;5070767;28;19949;-72
2023/04/26 09:27:04;;;;;;;;;;;;;;;10.66;66.18;96490.94;5071659;28;19945;-72
2023/04/26 09:29:30;;;;;;;;;;;;;;;10.60;66.89;96497.03;5070251;28;19943;-72
2023/04/26 09:31:57;;;;;;;;;;;;;;;10.57;65.91;96492.25;5070152;28;19937;-72
2023/04/26 09:34:23;;;;;;;;;;;;;;;10.42;65.26;96482.09;5071389;28;19944;-72
2023/04/26 09:36:54;;;;;;;;;;;;;;;10.31;65.56;96477.53;5069730;28;19959;-68
2023/04/26 09:39:33;;;;;;;;;;;;;;;10.22;66.01;96484.84;5070496;28;19956;-72
2023/04/26 09:42:00;;;;;;;;;;;;;;;10.06;66.77;96494.06;5069982;28;19942;-73
2023/04/26 09:44:28;;;;;;;;;;;;;;;9.91;65.95;96483.88;5070458;28;19948;-72
2023/04/26 09:47:04;;;;;;;;;;;;;;;9.75;68.30;96497.47;5071270;28;19998;-72
2023/04/26 09:49:32;;;;;;;;;;;;;;;9.91;79.23;96525.78;5069667;28;19947;-72
2023/04/26 09:52:02;;;;;;;;;;;;;;;10.30;78.72;96531.78;5069919;28;20323;-73
2023/04/26 09:55:01;;;;;;;;;;;;;;;10.69;78.23;96529.06;5070574;28;19944;-72
2023/04/26 09:57:27;;;;;;;;;;;;;;;10.91;70.42;96490.06;5047417;28;19967;-80
2023/04/26 09:59:55;;;;;;;;;;;;;;;10.93;64.96;96477.53;5069014;28;19950;-78
2023/04/26 10:02:22;;;;;;;;;;;;;;;10.87;66.08;96481.84;5070973;28;19939;-78
2023/04/26 10:04:49;;;;;;;;;;;;;;;10.76;66.60;96482.56;5069651;28;19955;-78
2023/04/26 10:07:16;;;;;;;;;;;;;;;10.68;64.89;96470.53;5070778;28;19951;-78
2023/04/26 10:09:42;;;;;;;;;;;;;;;10.68;71.31;96496.75;5070868;28;20390;-77
2023/04/26 10:12:09;;;;;;;;;;;;;;;10.77;63.00;96455.31;5069868;28;19944;-76
2023/04/26 10:14:35;;;;;;;;;;;;;;;10.76;64.57;96469.44;5070661;28;20377;-72
2023/04/26 10:17:02;;;;;;;;;;;;;;;10.70;63.55;96462.44;5051979;28;19951;-81
2023/04/26 10:19:28;;;;;;;;;;;;;;;10.66;62.99;96467.31;5089973;28;19961;-82
2023/04/26 10:21:58;;;;;;;;;;;;;;;10.54;61.47;96455.94;5071962;28;20310;-82
2023/04/26 10:24:24;;;;;;;;;;;;;;;10.44;65.09;96474.00;5055149;28;19952;-83
2023/04/26 10:26:52;;;;;;;;;;;;;;;10.47;64.87;96471.75;5055848;28;20345;-82
2023/04/26 10:29:18;;;;;;;;;;;;;;;10.63;64.98;96459.09;5049915;28;19951;-83
2023/04/26 10:32:00;;;;;;;;;;;;;;;10.86;63.43;96450.59;5059172;28;19943;-70
2023/04/26 10:34:26;;;;;;;;;;;;;;;10.89;58.07;96444.88;5076585;28;19968;-77
2023/04/26 10:37:06;;;;;;;;;;;;;;;11.09;61.96;96455.16;5076545;28;19963;-78
2023/04/26 10:39:32;;;;;;;;;;;;;;;11.27;60.40;96446.44;5076648;28;19961;-78
2023/04/26 10:42:23;;;;;;;;;;;;;;;11.54;59.17;96452.16;5058373;28;20457;-79
2023/04/26 10:44:58;;;;;;;;;;;;;;;12.08;57.20;96429.31;5076870;28;20278;-78
2023/04/26 10:47:26;;;;;;;;;;;;;;;12.54;56.90;96437.47;5076223;28;19939;-78
2023/04/26 10:50:00;;;;;;;;;;;;;;;12.64;50.71;96434.22;5058963;28;19988;-77
2023/04/26 10:52:26;;;;;;;;;;;;;;;12.59;51.76;96440.19;5075996;28;19945;-76
2023/04/26 10:54:55;;;;;;;;;;;;;;;12.48;48.87;96438.38;5075770;28;20357;-71
2023/04/26 10:57:22;;;;;;;;;;;;;;;12.35;50.49;96452.56;5058642;28;19947;-72
2023/04/26 11:00:12;;;;;;;;;;;;;;;12.31;49.81;96433.81;5058663;28;19951;-68
2023/04/26 11:02:48;;;;;;;;;;;;;;;12.18;48.17;96441.91;5042142;28;19948;-70
2023/04/26 11:05:32;;;;;;;;;;;;;;;12.13;47.91;96447.84;5057938;28;19952;-68
2023/04/26 11:08:14;;;;;;;;;;;;;;;12.16;49.20;96439.50;5075975;28;19945;-69
2023/04/26 11:10:40;;;;;;;;;;;;;;;12.23;51.97;96441.22;5075886;28;19939;-75
2023/04/26 11:13:06;;;;;;;;;;;;;;;12.25;51.50;96442.59;5057702;28;20316;-76
2023/04/26 11:15:32;;;;;;;;;;;;;;;12.37;51.94;96443.41;5057739;28;19940;-75
2023/04/26 11:18:01;;;;;;;;;;;;;;;12.40;49.96;96436.88;5075501;28;19974;-76
2023/04/26 11:20:30;;;;;;;;;;;;;;;12.28;51.23;96450.00;5075380;28;19957;-76
2023/04/26 11:22:57;;;;;;;;;;;;;;;12.24;51.36;96438.38;5058333;28;19948;-75
2023/04/26 11:25:27;;;;;;;;;;;;;;;12.13;50.76;96445.22;5075734;28;20408;-76
2023/04/26 11:28:02;;;;;;;;;;;;;;;12.16;51.72;96444.78;5075215;28;19941;-73
2023/04/26 11:30:29;;;;;;;;;;;;;;;12.19;51.55;96419.84;5058003;28;19958;-70
2023/04/26 11:32:55;;;;;;;;;;;;;;;12.22;51.80;96419.41;5075744;28;19943;-70
2023/04/26 11:35:24;;;;;;;;;;;;;;;12.41;51.17;96430.59;5075155;28;20411;-70
2023/04/26 11:37:50;;;;;;;;;;;;;;;12.66;52.51;96419.84;5074941;28;19963;-70
2023/04/26 11:40:16;;;;;;;;;;;;;;;12.94;54.28;96424.34;5074703;28;19937;-70
2023/04/26 11:42:46;;;;;;;;;;;;;;;13.05;48.58;96398.22;5074787;28;19949;-70
2023/04/26 11:45:14;;;;;;;;;;;;;;;13.13;47.32;96390.72;5041127;28;20290;-70
2023/04/26 11:47:39;;;;;;;;;;;;;;;13.30;54.21;96405.81;5074825;28;19944;-69
2023/04/26 11:50:07;;;;;;;;;;;;;;;13.45;46.83;96394.75;5040265;28;19943;-77
2023/04/26 11:52:33;;;;;;;;;;;;;;;13.47;48.76;96395.31;5074977;28;20310;-76
2023/04/26 11:55:03;;;;;;;;;;;;;;;13.50;48.83;96400.09;5074668;28;19946;-75
2023/04/26 11:57:30;;;;;;;;;;;;;;;13.48;48.65;96389.81;5075429;28;19943;-76
2023/04/26 12:00:07;;;;;;;;;;;;;;;13.76;52.48;96399.50;5074511;28;20422;-77
2023/04/26 12:02:34;;;;;;;;;;;;;;;13.83;49.46;96383.53;5074508;28;19960;-77
2023/04/26 12:05:00;;;;;;;;;;;;;;;13.79;50.87;96391.09;5074484;28;19940;-75
2023/04/26 12:07:31;;;;;;;;;;;;;;;13.74;52.65;96396.31;5075000;28;20396;-80
2023/04/26 12:09:57;;;;;;;;;;;;;;;13.86;49.74;96390.97;5074882;28;19935;-80
2023/04/26 12:12:23;;;;;;;;;;;;;;;13.95;51.19;96405.31;5074366;28;19941;-80
2023/04/26 12:14:49;;;;;;;;;;;;;;;13.90;47.14;96389.44;5057063;28;19946;-80
2023/04/26 12:17:14;;;;;;;;;;;;;;;13.71;51.06;96396.78;5056822;28;19949;-79
2023/04/26 12:19:40;;;;;;;;;;;;;;;13.58;52.09;96400.50;5039718;28;20009;-79
2023/04/26 12:22:07;;;;;;;;;;;;;;;13.59;51.36;96406.59;5040442;28;19955;-74
2023/04/26 12:24:36;;;;;;;;;;;;;;;13.64;51.63;96393.50;5040759;28;19946;-69
2023/04/26 12:27:03;;;;;;;;;;;;;;;13.87;53.02;96391.75;5057021;28;19940;-80
2023/04/26 12:29:30;;;;;;;;;;;;;;;14.16;52.74;96392.47;5056735;28;20310;-80
2023/04/26 12:31:56;;;;;;;;;;;;;;;14.51;51.01;96388.69;5073991;28;19941;-80
2023/04/26 12:34:22;;;;;;;;;;;;;;;14.61;50.43;96391.50;5074830;28;19942;-80
2023/04/26 12:36:48;;;;;;;;;;;;;;;14.71;50.30;96386.34;5039369;28;19964;-80
2023/04/26 12:39:14;;;;;;;;;;;;;;;14.89;51.65;96382.63;5039699;28;20020;-80
2023/04/26 12:41:41;;;;;;;;;;;;;;;14.88;49.84;96375.72;5056906;28;19940;-73
2023/04/26 12:44:07;;;;;;;;;;;;;;;14.81;47.39;96377.78;5073854;28;19936;-74
2023/04/26 12:46:33;;;;;;;;;;;;;;;14.72;50.55;96379.22;5073888;28;19948;-74
2023/04/26 12:48:59;;;;;;;;;;;;;;;14.64;49.27;96372.56;5073781;28;19938;-74